Time;durP1;ratioP1;P1;durP2;ratioP2;P2;SDS_P1;SDS_P2;PMS_P1;PMS_P2;Temp;Humidity;BMP_temperature;BMP_pressure;BME280_temperature;BME280_humidity;BME280_pressure;Samples;Min_cycle;Max_cycle;Signal;HPM_P1;HPM_P2
2022/05/24 00:00:46;;;;;;;1.27;1.00;;;17.80;99.90;;;;;;4997093;28;20178;-38
2022/05/24 00:03:12;;;;;;;2.25;1.40;;;17.70;99.90;;;;;;4997210;28;20224;-37
2022/05/24 00:05:38;;;;;;;2.40;1.38;;;17.70;99.90;;;;;;5013631;28;20209;-36
2022/05/24 00:08:07;;;;;;;2.47;1.30;;;17.70;99.90;;;;;;5013276;28;20206;-36
2022/05/24 00:10:36;;;;;;;1.90;1.40;;;17.60;99.90;;;;;;5013792;28;20213;-38
2022/05/24 00:13:02;;;;;;;1.90;1.30;;;17.60;99.90;;;;;;4997470;28;20182;-36
2022/05/24 00:15:30;;;;;;;2.80;1.33;;;17.60;99.90;;;;;;5013289;28;20194;-38
2022/05/24 00:18:05;;;;;;;1.45;1.35;;;17.60;99.90;;;;;;5013453;28;20178;-37
2022/05/24 00:20:42;;;;;;;1.65;1.48;;;17.50;99.90;;;;;;5012888;28;20606;-36
2022/05/24 00:23:08;;;;;;;1.40;1.30;;;17.50;99.90;;;;;;5013380;28;20185;-39
2022/05/24 00:25:37;;;;;;;1.93;1.30;;;17.50;99.90;;;;;;4996916;28;20186;-36
2022/05/24 00:28:05;;;;;;;4.28;1.30;;;17.50;99.90;;;;;;5013282;28;20297;-37
2022/05/24 00:30:30;;;;;;;1.83;1.50;;;17.60;99.90;;;;;;5013035;28;20170;-36
2022/05/24 00:32:57;;;;;;;1.85;1.30;;;17.50;99.90;;;;;;5013320;28;20255;-37
2022/05/24 00:35:23;;;;;;;2.53;1.37;;;17.60;99.90;;;;;;5013598;28;20186;-39
2022/05/24 00:37:49;;;;;;;2.25;1.50;;;17.50;99.90;;;;;;5013420;28;20190;-36
2022/05/24 00:40:46;;;;;;;1.52;1.33;;;17.60;99.90;;;;;;5013367;28;20243;-36
2022/05/24 00:43:27;;;;;;;1.27;1.17;;;17.60;99.90;;;;;;5013307;28;20297;-37
2022/05/24 00:45:58;;;;;;;2.63;1.17;;;17.60;99.90;;;;;;5033885;28;20185;-39
2022/05/24 00:48:39;;;;;;;1.75;1.20;;;17.60;99.90;;;;;;5017133;28;20301;-36
2022/05/24 00:51:11;;;;;;;2.30;1.08;;;17.60;99.90;;;;;;5016965;28;20220;-37
2022/05/24 00:53:45;;;;;;;4.25;1.30;;;17.60;99.90;;;;;;5017160;28;20190;-36
2022/05/24 00:56:16;;;;;;;2.08;1.30;;;17.60;99.90;;;;;;5017296;28;20179;-36
2022/05/24 00:58:45;;;;;;;3.05;1.40;;;17.60;99.90;;;;;;5017485;28;20190;-36
2022/05/24 01:01:41;;;;;;;3.92;1.30;;;17.60;99.90;;;;;;5000423;28;20309;-37
2022/05/24 01:04:09;;;;;;;1.30;1.20;;;17.60;99.90;;;;;;4995672;28;20216;-41
2022/05/24 01:06:36;;;;;;;1.73;1.52;;;17.60;99.90;;;;;;5016959;28;20190;-36
2022/05/24 01:09:07;;;;;;;1.25;1.10;;;17.60;99.90;;;;;;5017068;28;20236;-36
2022/05/24 01:11:38;;;;;;;1.50;1.10;;;17.60;99.90;;;;;;5016863;28;20243;-36
2022/05/24 01:14:07;;;;;;;1.27;1.17;;;17.60;99.90;;;;;;5016897;28;20193;-36
2022/05/24 01:16:34;;;;;;;2.17;1.33;;;17.60;99.90;;;;;;5016755;28;20194;-36
2022/05/24 01:19:04;;;;;;;1.35;1.00;;;17.60;99.90;;;;;;5016637;28;20289;-36
2022/05/24 01:21:32;;;;;;;1.10;1.10;;;17.60;99.90;;;;;;5016865;28;20205;-38
2022/05/24 01:24:24;;;;;;;1.13;1.02;;;17.60;99.90;;;;;;5016913;28;20183;-36
2022/05/24 01:26:54;;;;;;;0.98;0.95;;;17.60;99.90;;;;;;5016659;28;20210;-38
2022/05/24 01:29:24;;;;;;;1.70;1.00;;;17.60;99.90;;;;;;5016347;28;20189;-39
2022/05/24 01:37:40;;;;;;;1.35;0.93;;;17.60;99.90;;;;;;5016451;28;20194;-38
2022/05/24 01:40:06;;;;;;;1.85;0.93;;;17.60;99.90;;;;;;5016487;28;20206;-36
2022/05/24 01:42:33;;;;;;;1.83;1.10;;;17.60;99.90;;;;;;5015823;28;20206;-37
2022/05/24 01:45:09;;;;;;;0.95;0.95;;;17.60;99.90;;;;;;5015971;28;20247;-36
2022/05/24 01:47:40;;;;;;;1.08;0.90;;;17.60;99.90;;;;;;5000242;28;20216;-38
2022/05/24 01:50:11;;;;;;;1.35;0.82;;;17.50;99.90;;;;;;5015796;28;20242;-36
2022/05/24 01:52:43;;;;;;;0.90;0.90;;;17.50;99.90;;;;;;5000040;28;20297;-37
2022/05/24 01:55:24;;;;;;;0.80;0.80;;;17.40;99.90;;;;;;5033637;28;20181;-36
2022/05/24 01:57:54;;;;;;;1.42;0.93;;;17.40;99.90;;;;;;4999526;28;20198;-38
2022/05/24 02:00:21;;;;;;;1.13;0.80;;;17.40;99.90;;;;;;5033313;28;20182;-36
2022/05/24 02:02:48;;;;;;;1.83;1.05;;;17.30;99.90;;;;;;5015704;28;20202;-36
2022/05/24 02:05:30;;;;;;;1.38;0.90;;;17.20;99.90;;;;;;5033676;28;20583;-36
2022/05/24 02:07:56;;;;;;;2.90;1.10;;;17.20;99.90;;;;;;5015896;28;20203;-35
2022/05/24 02:10:22;;;;;;;0.95;0.90;;;17.20;99.90;;;;;;5015918;28;20182;-36
2022/05/24 02:12:53;;;;;;;0.90;0.90;;;17.10;99.90;;;;;;5015475;28;20196;-37
2022/05/24 02:15:26;;;;;;;1.00;0.90;;;17.10;99.90;;;;;;5015717;28;20224;-36
2022/05/24 02:18:04;;;;;;;1.45;1.05;;;17.10;99.90;;;;;;5015779;28;20182;-37
2022/05/24 02:20:33;;;;;;;1.80;0.90;;;17.10;99.90;;;;;;5015675;28;20191;-37
2022/05/24 02:23:00;;;;;;;1.00;0.90;;;17.10;99.90;;;;;;5015204;28;20210;-36
2022/05/24 02:25:47;;;;;;;1.85;1.00;;;17.10;99.90;;;;;;5015396;28;20183;-36
2022/05/24 02:28:15;;;;;;;2.00;1.13;;;17.00;99.90;;;;;;5015480;28;20209;-37
2022/05/24 02:30:49;;;;;;;2.80;1.20;;;17.00;99.90;;;;;;5015346;28;20214;-37
2022/05/24 02:33:16;;;;;;;1.10;1.10;;;16.90;99.90;;;;;;5015383;28;20178;-36
2022/05/24 02:35:42;;;;;;;1.90;1.00;;;16.90;99.90;;;;;;5015275;28;20206;-36
2022/05/24 02:38:08;;;;;;;1.55;1.30;;;16.80;99.90;;;;;;5015374;28;20264;-36
2022/05/24 02:43:18;;;;;;;2.17;1.10;;;16.80;99.90;;;;;;5015376;28;20240;-36
2022/05/24 02:45:44;;;;;;;1.50;1.30;;;16.80;99.90;;;;;;5014928;28;20237;-36
2022/05/24 02:48:10;;;;;;;1.20;1.10;;;16.80;99.90;;;;;;5014879;28;20252;-36
2022/05/24 02:50:36;;;;;;;1.33;1.20;;;16.80;99.90;;;;;;5032415;28;20174;-36
2022/05/24 02:53:02;;;;;;;2.43;1.20;;;16.80;99.90;;;;;;5015215;28;20200;-37
2022/05/24 02:55:30;;;;;;;4.67;1.20;;;16.80;99.90;;;;;;5014898;28;20224;-37
2022/05/24 02:57:56;;;;;;;3.40;1.40;;;16.80;99.90;;;;;;5014910;28;20192;-38
2022/05/24 03:00:24;;;;;;;1.93;1.30;;;16.80;99.90;;;;;;5014873;28;20175;-37
2022/05/24 03:02:52;;;;;;;1.47;1.37;;;16.80;99.90;;;;;;5015002;28;20203;-37
2022/05/24 03:05:21;;;;;;;4.10;1.20;;;16.80;99.90;;;;;;5015170;28;20183;-37
2022/05/24 03:10:33;;;;;;;1.87;1.10;;;16.70;99.90;;;;;;5014281;28;20278;-37
2022/05/24 03:15:45;;;;;;;1.80;1.07;;;16.70;99.90;;;;;;5014496;28;20197;-36
2022/05/24 03:18:14;;;;;;;2.20;1.40;;;16.70;99.90;;;;;;5014545;28;20186;-37
2022/05/24 03:20:41;;;;;;;2.43;1.20;;;16.60;99.90;;;;;;5014396;28;20194;-37
2022/05/24 03:23:09;;;;;;;2.27;1.10;;;16.60;99.90;;;;;;5014408;28;20240;-37
2022/05/24 03:25:36;;;;;;;2.23;1.33;;;16.60;99.90;;;;;;5014056;28;20543;-37
2022/05/24 03:28:03;;;;;;;1.47;1.20;;;16.60;99.90;;;;;;5013458;28;20209;-36
2022/05/24 03:30:30;;;;;;;3.20;1.30;;;16.60;99.90;;;;;;5011018;28;20183;-39
2022/05/24 03:32:56;;;;;;;3.03;1.10;;;16.60;99.90;;;;;;5022733;28;20237;-36
2022/05/24 03:35:24;;;;;;;2.13;1.20;;;16.70;99.90;;;;;;4994994;28;20742;-36
2022/05/24 03:37:51;;;;;;;2.53;1.23;;;16.60;99.90;;;;;;4996511;28;20221;-36
2022/05/24 03:40:16;;;;;;;1.37;1.27;;;16.60;99.90;;;;;;4996176;28;20272;-37
2022/05/24 03:42:42;;;;;;;2.10;1.17;;;16.60;99.90;;;;;;4997075;28;20210;-37
2022/05/24 03:45:10;;;;;;;1.30;1.20;;;16.60;99.90;;;;;;5013733;28;20201;-36
2022/05/24 03:47:37;;;;;;;2.00;1.20;;;16.60;99.90;;;;;;5013707;28;20210;-39
2022/05/24 03:50:06;;;;;;;2.53;1.40;;;16.50;99.90;;;;;;5013540;28;20182;-36
2022/05/24 03:52:32;;;;;;;2.97;1.40;;;16.50;99.90;;;;;;4997214;28;20208;-37
2022/05/24 03:54:57;;;;;;;1.20;1.10;;;16.50;99.90;;;;;;5013648;28;20209;-36
2022/05/24 04:00:09;;;;;;;2.17;1.27;;;16.40;99.90;;;;;;5013662;28;20210;-36
2022/05/24 04:02:41;;;;;;;1.80;1.30;;;16.40;99.90;;;;;;5013957;28;20663;-36
2022/05/24 04:05:08;;;;;;;2.00;1.50;;;16.30;99.90;;;;;;5031378;28;20182;-37
2022/05/24 04:07:34;;;;;;;2.33;1.40;;;16.30;99.90;;;;;;5014300;28;20209;-36
2022/05/24 04:10:01;;;;;;;1.43;1.10;;;16.30;99.90;;;;;;5015614;28;20216;-38
2022/05/24 04:12:27;;;;;;;2.27;1.07;;;16.30;99.90;;;;;;5032073;28;20260;-39
2022/05/24 04:14:53;;;;;;;2.20;1.30;;;16.30;99.90;;;;;;4997216;28;20654;-36
2022/05/24 04:17:20;;;;;;;3.47;1.20;;;16.30;99.90;;;;;;5013677;28;20201;-37
2022/05/24 04:19:45;;;;;;;1.37;1.27;;;16.20;99.90;;;;;;4997056;28;20213;-36
2022/05/24 04:22:11;;;;;;;4.30;1.23;;;16.20;99.90;;;;;;4996943;28;20214;-34
2022/05/24 04:24:39;;;;;;;1.70;1.47;;;16.20;99.90;;;;;;5031405;28;20198;-36
2022/05/24 04:27:06;;;;;;;1.40;1.30;;;16.20;99.90;;;;;;5013429;28;20213;-34
2022/05/24 04:29:32;;;;;;;1.57;1.30;;;16.30;99.90;;;;;;5013012;28;20185;-35
2022/05/24 04:31:57;;;;;;;2.37;1.23;;;16.30;99.90;;;;;;5080640;23;20222;-32
2022/05/24 04:34:23;;;;;;;3.20;1.60;;;16.30;99.90;;;;;;5012357;28;20233;-31
2022/05/24 04:36:49;;;;;;;1.93;1.30;;;16.30;99.90;;;;;;5012697;28;20183;-32
2022/05/24 04:39:16;;;;;;;2.20;1.47;;;16.30;99.90;;;;;;5004422;28;20183;-32
2022/05/24 04:44:26;;;;;;;1.60;1.43;;;16.40;99.90;;;;;;4997529;28;20198;-32
2022/05/24 04:47:13;;;;;;;2.57;1.40;;;16.40;99.90;;;;;;4993560;28;20187;-32
2022/05/24 04:49:46;;;;;;;2.97;1.40;;;16.40;99.90;;;;;;4992034;28;20191;-32
2022/05/24 04:52:15;;;;;;;2.50;1.40;;;16.40;99.90;;;;;;4991455;28;20195;-32
2022/05/24 04:54:42;;;;;;;1.83;1.50;;;16.40;99.90;;;;;;4996326;28;20206;-32
2022/05/24 04:57:09;;;;;;;1.30;1.20;;;16.40;99.90;;;;;;4996644;28;20183;-32
2022/05/24 04:59:36;;;;;;;2.80;1.30;;;16.40;99.90;;;;;;4983660;28;20183;-31
2022/05/24 05:02:03;;;;;;;3.87;1.40;;;16.50;99.90;;;;;;4999261;28;20200;-31
2022/05/24 05:04:29;;;;;;;1.57;1.33;;;16.50;99.90;;;;;;5010567;28;20215;-32
2022/05/24 05:06:56;;;;;;;3.27;1.60;;;16.50;99.90;;;;;;5002967;28;20211;-32
2022/05/24 05:09:22;;;;;;;4.22;1.52;;;16.50;99.90;;;;;;4973403;28;20207;-32
2022/05/24 05:11:48;;;;;;;4.27;1.50;;;16.50;99.90;;;;;;5006357;28;20208;-31
2022/05/24 05:14:14;;;;;;;1.77;1.50;;;16.50;99.90;;;;;;4992855;28;20187;-31
2022/05/24 05:16:41;;;;;;;1.60;1.40;;;16.50;99.90;;;;;;4977740;28;20214;-32
2022/05/24 05:19:09;;;;;;;2.83;1.50;;;16.60;99.90;;;;;;4993062;28;20270;-32
2022/05/24 05:21:37;;;;;;;2.47;1.40;;;16.60;99.90;;;;;;5009478;28;20210;-31
2022/05/24 05:24:04;;;;;;;2.10;1.27;;;16.70;99.90;;;;;;5010782;28;20179;-30
2022/05/24 05:26:30;;;;;;;1.40;1.30;;;16.70;99.90;;;;;;5009511;28;20257;-30
2022/05/24 05:28:56;;;;;;;1.47;1.37;;;16.70;99.90;;;;;;4992638;28;20207;-31
2022/05/24 05:31:24;;;;;;;2.20;1.50;;;16.70;99.90;;;;;;4978289;28;20203;-30
2022/05/24 05:33:51;;;;;;;1.90;1.40;;;16.70;99.90;;;;;;5014378;28;20171;-31
2022/05/24 05:36:18;;;;;;;2.53;1.40;;;16.70;99.90;;;;;;4996682;28;20194;-32
2022/05/24 05:38:48;;;;;;;2.87;1.50;;;16.70;99.90;;;;;;5012694;28;20297;-32
2022/05/24 05:41:21;;;;;;;1.87;1.50;;;16.80;99.90;;;;;;4980222;28;20221;-32
2022/05/24 05:43:47;;;;;;;2.40;1.50;;;16.90;99.90;;;;;;5013130;28;20278;-32
2022/05/24 05:46:14;;;;;;;2.23;1.60;;;16.90;99.90;;;;;;5012877;28;20667;-32
2022/05/24 05:48:41;;;;;;;4.33;1.80;;;16.90;99.90;;;;;;5013775;28;20207;-31
2022/05/24 05:51:09;;;;;;;1.92;1.70;;;16.90;99.90;;;;;;4996045;28;20194;-32
2022/05/24 05:53:35;;;;;;;2.40;1.50;;;16.90;99.90;;;;;;4996453;28;20779;-32
2022/05/24 05:56:02;;;;;;;1.50;1.40;;;17.00;99.90;;;;;;5012358;28;20179;-32
2022/05/24 05:58:30;;;;;;;2.17;1.47;;;16.90;99.90;;;;;;5013676;28;20671;-31
2022/05/24 06:00:56;;;;;;;1.80;1.50;;;16.90;99.90;;;;;;4997552;28;20184;-31
2022/05/24 06:03:22;;;;;;;4.27;1.40;;;16.80;99.90;;;;;;4994474;28;20195;-31
2022/05/24 06:05:51;;;;;;;3.30;1.40;;;16.80;99.90;;;;;;5010567;28;20187;-32
2022/05/24 06:08:18;;;;;;;1.50;1.40;;;17.00;99.90;;;;;;5006151;28;20262;-32
2022/05/24 06:10:44;;;;;;;4.10;1.40;;;17.10;99.90;;;;;;4958779;28;20223;-32
2022/05/24 06:13:11;;;;;;;3.78;1.50;;;17.20;99.90;;;;;;5001349;28;20195;-32
2022/05/24 06:15:37;;;;;;;3.90;1.80;;;17.30;99.90;;;;;;5004801;28;20222;-33
2022/05/24 06:18:04;;;;;;;1.77;1.58;;;17.30;99.90;;;;;;5004955;28;20184;-32
2022/05/24 06:20:31;;;;;;;2.38;1.40;;;17.50;99.90;;;;;;4994292;28;20179;-30
2022/05/24 06:22:58;;;;;;;2.97;1.50;;;17.70;99.90;;;;;;4987736;28;20191;-30
2022/05/24 06:25:28;;;;;;;1.90;1.10;;;17.90;99.90;;;;;;4983448;28;20210;-31
2022/05/24 06:27:54;;;;;;;2.95;1.55;;;18.20;99.90;;;;;;4983831;28;20199;-30
2022/05/24 06:30:22;;;;;;;1.75;0.90;;;18.30;99.90;;;;;;4990905;28;20259;-31
2022/05/24 06:32:48;;;;;;;2.42;1.25;;;18.40;99.90;;;;;;4975671;28;20706;-30
2022/05/24 06:35:15;;;;;;;2.67;1.10;;;18.40;99.90;;;;;;4992325;28;20183;-30
2022/05/24 06:37:43;;;;;;;2.17;1.00;;;18.30;99.90;;;;;;5029062;23;20244;-38
2022/05/24 06:40:12;;;;;;;1.42;0.95;;;18.10;99.90;;;;;;4994047;28;20190;-38
2022/05/24 06:42:38;;;;;;;3.05;1.13;;;18.10;99.90;;;;;;5012236;28;20176;-37
2022/05/24 06:45:05;;;;;;;3.97;1.35;;;18.10;99.90;;;;;;4995493;28;20183;-36
2022/05/24 06:47:30;;;;;;;1.88;1.00;;;18.10;99.90;;;;;;4995059;28;20211;-36
2022/05/24 06:49:57;;;;;;;3.67;1.00;;;18.00;99.90;;;;;;4994911;28;20179;-35
2022/05/24 06:52:23;;;;;;;1.92;1.10;;;18.00;99.90;;;;;;5013252;28;20207;-36
2022/05/24 06:54:49;;;;;;;1.52;0.90;;;18.00;99.90;;;;;;5013104;28;20191;-37
2022/05/24 06:57:15;;;;;;;3.55;1.30;;;18.00;99.90;;;;;;4995281;28;20211;-36
2022/05/24 07:02:25;;;;;;;4.20;1.38;;;17.90;99.90;;;;;;5012507;28;20206;-36
2022/05/24 07:04:58;;;;;;;2.33;1.05;;;17.80;99.90;;;;;;4994884;28;20186;-37
2022/05/24 07:07:24;;;;;;;6.72;1.70;;;17.80;99.90;;;;;;4994879;28;20306;-38
2022/05/24 07:09:52;;;;;;;2.95;1.23;;;17.60;99.90;;;;;;4994992;28;20188;-35
2022/05/24 07:12:20;;;;;;;1.13;0.60;;;17.20;99.90;;;;;;4994821;28;20262;-35
2022/05/24 07:14:46;;;;;;;1.20;0.70;;;16.60;99.90;;;;;;5011275;28;20222;-35
2022/05/24 07:17:12;;;;;;;2.00;0.67;;;16.20;99.90;;;;;;4978421;28;20192;-40
2022/05/24 07:19:38;;;;;;;1.20;0.80;;;16.00;99.90;;;;;;4994983;28;20183;-35
2022/05/24 07:22:09;;;;;;;4.53;0.70;;;15.80;99.90;;;;;;4994861;28;20175;-36
2022/05/24 07:24:35;;;;;;;1.43;0.60;;;15.80;99.90;;;;;;4994667;28;20179;-35
2022/05/24 07:27:04;;;;;;;1.07;0.90;;;15.70;99.90;;;;;;4994589;28;20225;-35
2022/05/24 07:29:33;;;;;;;2.30;0.60;;;15.70;99.90;;;;;;5011924;28;20179;-36
2022/05/24 07:31:59;;;;;;;1.70;0.60;;;15.70;99.90;;;;;;4978305;28;20193;-34
2022/05/24 07:34:25;;;;;;;0.77;0.60;;;15.60;99.90;;;;;;4994732;28;20180;-35
2022/05/24 07:36:51;;;;;;;0.97;0.50;;;15.60;99.90;;;;;;4994388;28;20241;-36
2022/05/24 07:39:17;;;;;;;0.60;0.60;;;15.60;99.90;;;;;;4994052;28;20191;-33
2022/05/24 07:47:12;;;;;;;0.83;0.70;;;15.80;99.90;;;;;;5010623;28;20745;-34
2022/05/24 07:49:38;;;;;;;0.50;0.50;;;15.80;99.90;;;;;;4994219;28;20175;-34
2022/05/24 07:52:05;;;;;;;0.70;0.60;;;15.80;99.90;;;;;;5010571;28;20186;-34
2022/05/24 07:54:32;;;;;;;0.50;0.50;;;15.80;99.90;;;;;;4993601;28;20175;-33
2022/05/24 07:56:58;;;;;;;0.87;0.53;;;16.00;99.90;;;;;;4994256;28;20199;-33
2022/05/24 07:59:24;;;;;;;0.43;0.33;;;16.10;99.90;;;;;;4993924;28;20286;-36
2022/05/24 08:01:50;;;;;;;0.43;0.30;;;16.10;99.90;;;;;;4994376;28;20252;-33
2022/05/24 08:04:16;;;;;;;0.77;0.43;;;16.00;99.90;;;;;;4994369;28;20176;-35
2022/05/24 08:06:42;;;;;;;1.17;0.60;;;16.00;99.90;;;;;;4994399;28;20265;-35
2022/05/24 08:09:08;;;;;;;1.20;0.60;;;16.00;99.90;;;;;;4977491;28;20210;-34
2022/05/24 08:11:33;;;;;;;2.53;0.40;;;16.00;99.90;;;;;;4993898;28;20179;-34
2022/05/24 08:14:02;;;;;;;1.57;0.57;;;16.00;99.90;;;;;;4993723;28;20298;-34
2022/05/24 08:16:32;;;;;;;0.40;0.40;;;16.00;99.90;;;;;;4993717;28;20199;-35
2022/05/24 08:19:02;;;;;;;0.80;0.33;;;16.10;99.90;;;;;;4977278;28;20278;-34
2022/05/24 08:21:29;;;;;;;0.43;0.40;;;16.20;99.90;;;;;;4994020;28;20246;-34
2022/05/24 08:23:56;;;;;;;4.20;0.70;;;16.20;99.90;;;;;;5011138;28;20179;-35
2022/05/24 08:26:21;;;;;;;0.70;0.50;;;16.40;99.90;;;;;;4993764;28;20203;-35
2022/05/24 08:28:47;;;;;;;0.50;0.50;;;16.40;99.90;;;;;;5010076;28;20800;-34
2022/05/24 08:31:15;;;;;;;0.50;0.50;;;16.40;99.90;;;;;;4993513;28;20258;-34
2022/05/24 08:33:43;;;;;;;1.57;0.60;;;16.50;99.90;;;;;;4993717;28;20188;-34
2022/05/24 08:36:10;;;;;;;1.50;0.60;;;16.60;99.90;;;;;;4993161;28;20270;-34
2022/05/24 08:38:37;;;;;;;1.23;0.47;;;16.70;99.90;;;;;;4993738;28;20191;-33
2022/05/24 08:41:06;;;;;;;0.53;0.53;;;16.60;99.90;;;;;;4993479;28;20191;-35
2022/05/24 08:43:56;;;;;;;1.07;0.77;;;16.60;99.90;;;;;;4993557;28;20234;-33
2022/05/24 08:49:21;;;;;;;0.77;0.57;;;16.70;99.90;;;;;;5009732;28;20225;-35
2022/05/24 08:51:56;;;;;;;1.23;0.67;;;16.70;99.90;;;;;;4993885;28;20221;-34
2022/05/24 08:54:33;;;;;;;2.40;0.70;;;16.70;99.90;;;;;;4993422;28;20248;-35
2022/05/24 08:57:06;;;;;;;0.50;0.50;;;16.80;99.90;;;;;;4993383;28;20191;-35
2022/05/24 08:59:47;;;;;;;2.40;0.50;;;16.90;99.90;;;;;;4993382;28;20263;-34
2022/05/24 09:02:13;;;;;;;1.73;0.63;;;17.10;99.90;;;;;;4993621;28;20309;-35
2022/05/24 09:04:39;;;;;;;0.60;0.60;;;17.30;99.90;;;;;;4993285;28;20202;-35
2022/05/24 09:07:05;;;;;;;0.60;0.60;;;17.50;99.90;;;;;;5013472;28;20247;-34
2022/05/24 09:09:36;;;;;;;0.77;0.60;;;17.50;99.90;;;;;;4996740;28;20207;-35
2022/05/24 09:12:23;;;;;;;1.70;0.60;;;17.60;99.90;;;;;;5013565;28;20183;-36
2022/05/24 09:15:01;;;;;;;0.80;0.70;;;17.60;99.90;;;;;;5014760;28;20266;-35
2022/05/24 09:17:39;;;;;;;2.38;0.52;;;17.60;99.90;;;;;;5013260;28;20238;-36
2022/05/24 09:20:26;;;;;;;1.10;0.60;;;17.60;99.90;;;;;;5013005;28;20183;-34
2022/05/24 09:23:01;;;;;;;1.38;0.73;;;17.90;99.90;;;;;;5013505;28;20186;-35
2022/05/24 09:25:27;;;;;;;1.75;0.60;;;18.20;99.90;;;;;;4996886;28;20178;-35
2022/05/24 09:27:54;;;;;;;1.10;0.60;;;18.40;99.90;;;;;;4996787;28;20218;-35
2022/05/24 09:30:29;;;;;;;1.17;0.57;;;18.40;99.90;;;;;;4996422;28;20183;-34
2022/05/24 09:33:19;;;;;;;2.17;0.60;;;18.50;99.90;;;;;;5013195;28;20179;-36
2022/05/24 09:35:45;;;;;;;2.03;0.60;;;18.70;99.90;;;;;;4996666;28;20182;-36
2022/05/24 09:38:14;;;;;;;0.75;0.65;;;18.80;99.90;;;;;;4996358;28;20223;-35
2022/05/24 09:40:51;;;;;;;0.98;0.50;;;19.00;99.90;;;;;;4996520;28;20180;-34
2022/05/24 09:43:23;;;;;;;2.40;0.70;;;18.90;99.90;;;;;;4996552;28;20198;-34
2022/05/24 09:45:58;;;;;;;0.57;0.57;;;18.70;99.90;;;;;;4996597;28;20187;-34
2022/05/24 09:48:28;;;;;;;0.63;0.50;;;18.60;99.90;;;;;;4996397;28;20225;-35
2022/05/24 09:50:56;;;;;;;0.60;0.60;;;18.60;99.90;;;;;;4996532;28;20241;-33
2022/05/24 09:53:26;;;;;;;0.60;0.60;;;18.50;99.90;;;;;;4996252;28;20286;-34
2022/05/24 09:55:55;;;;;;;1.27;0.50;;;18.60;99.90;;;;;;4996385;28;20210;-36
2022/05/24 09:58:57;;;;;;;0.40;0.40;;;18.70;99.90;;;;;;5012804;28;20182;-35
2022/05/24 10:01:30;;;;;;;0.82;0.60;;;19.10;99.90;;;;;;4996454;28;20179;-34
2022/05/24 10:04:12;;;;;;;3.28;0.60;;;19.50;99.90;;;;;;5012439;28;20190;-34
2022/05/24 10:06:41;;;;;;;1.77;0.70;;;19.70;99.90;;;;;;5012605;28;20207;-36
2022/05/24 10:09:12;;;;;;;1.23;0.60;;;20.00;99.90;;;;;;4995735;28;20215;-35
2022/05/24 10:12:01;;;;;;;1.95;0.60;;;20.00;99.90;;;;;;4996108;28;20179;-34
2022/05/24 10:15:05;;;;;;;0.73;0.50;;;20.40;99.90;;;;;;4995245;28;20198;-35
2022/05/24 10:17:48;;;;;;;0.50;0.50;;;20.70;99.90;;;;;;4995724;28;20209;-36
2022/05/24 10:20:40;;;;;;;0.60;0.60;;;20.90;99.90;;;;;;4996063;28;20236;-35
2022/05/24 10:23:48;;;;;;;0.50;0.47;;;20.70;99.90;;;;;;4995941;28;20190;-34
2022/05/24 10:26:41;;;;;;;0.88;0.60;;;20.60;99.90;;;;;;4995241;28;20211;-35
2022/05/24 10:29:44;;;;;;;0.60;0.50;;;20.60;99.90;;;;;;4997001;28;20238;-34
2022/05/24 10:38:36;;;;;;;1.48;0.50;;;21.10;99.90;;;;;;4983390;28;20238;-38
2022/05/24 10:41:20;;;;;;;0.40;0.40;;;21.10;99.90;;;;;;4966906;28;20199;-36
2022/05/24 10:44:05;;;;;;;1.30;0.40;;;21.20;99.90;;;;;;4968082;28;20252;-35
2022/05/24 10:46:46;;;;;;;0.45;0.40;;;21.40;99.90;;;;;;4991408;28;20207;-36
2022/05/24 10:49:28;;;;;;;1.20;0.50;;;21.70;99.90;;;;;;4990070;28;20207;-36
2022/05/24 10:52:08;;;;;;;0.60;0.50;;;21.70;99.90;;;;;;4959209;28;20180;-34
2022/05/24 10:54:43;;;;;;;1.02;0.50;;;21.90;99.90;;;;;;4990556;28;20196;-35
2022/05/24 10:57:37;;;;;;;0.70;0.50;;;21.90;99.90;;;;;;4974118;28;20215;-34
2022/05/24 11:00:14;;;;;;;1.02;0.45;;;21.60;99.90;;;;;;4932050;28;20196;-35
2022/05/24 11:03:05;;;;;;;0.55;0.50;;;21.30;99.90;;;;;;4976160;28;20183;-37
2022/05/24 11:05:52;;;;;;;0.65;0.52;;;21.10;99.90;;;;;;4975587;28;20194;-36
2022/05/24 11:08:46;;;;;;;2.35;0.60;;;20.70;99.90;;;;;;4991591;28;20212;-35
2022/05/24 11:11:47;;;;;;;0.50;0.50;;;20.40;99.90;;;;;;4959275;28;20184;-34
2022/05/24 11:14:33;;;;;;;0.82;0.60;;;20.20;99.90;;;;;;4953114;28;20191;-33
2022/05/24 11:17:00;;;;;;;0.95;0.60;;;20.20;99.90;;;;;;4994771;28;20234;-34
2022/05/24 11:19:35;;;;;;;0.93;0.60;;;20.30;99.90;;;;;;4987349;28;20272;-35
2022/05/24 11:22:11;;;;;;;0.57;0.50;;;20.50;99.90;;;;;;4966051;28;20176;-34
2022/05/24 11:24:43;;;;;;;0.90;0.63;;;20.80;99.90;;;;;;4977361;28;20215;-38
2022/05/24 11:27:14;;;;;;;0.63;0.52;;;21.10;99.90;;;;;;4970423;28;20291;-34
2022/05/24 11:29:43;;;;;;;1.02;0.70;;;21.20;99.90;;;;;;4982649;28;20184;-35
2022/05/24 11:32:11;;;;;;;1.50;0.68;;;21.40;99.90;;;;;;4987553;28;20168;-36
2022/05/24 11:35:16;;;;;;;0.90;0.60;;;21.60;99.90;;;;;;4968208;28;20255;-34
2022/05/24 11:37:43;;;;;;;0.82;0.50;;;21.80;99.90;;;;;;4948731;28;20216;-34
2022/05/24 11:40:36;;;;;;;2.50;0.90;;;21.90;99.90;;;;;;4958024;28;20199;-33
2022/05/24 11:43:12;;;;;;;0.50;0.50;;;21.90;99.90;;;;;;4966264;28;20192;-36
2022/05/24 11:46:08;;;;;;;1.38;0.65;;;22.10;99.90;;;;;;4989660;28;20609;-35
2022/05/24 11:48:43;;;;;;;2.15;0.73;;;22.20;99.10;;;;;;4950289;28;20224;-34
2022/05/24 11:51:30;;;;;;;0.60;0.60;;;22.30;99.90;;;;;;4990511;28;20314;-34
2022/05/24 11:53:57;;;;;;;0.60;0.60;;;22.30;99.90;;;;;;4973300;28;20219;-34
2022/05/24 11:56:24;;;;;;;1.02;0.47;;;22.40;99.90;;;;;;4974584;28;20199;-36
2022/05/24 11:59:11;;;;;;;0.50;0.50;;;22.50;99.20;;;;;;4974146;28;20755;-34
2022/05/24 12:01:41;;;;;;;1.55;0.50;;;22.50;99.00;;;;;;4974244;28;20180;-34
2022/05/24 12:07:54;;;;;;;1.33;0.60;;;22.60;98.80;;;;;;4989878;28;20254;-34
2022/05/24 12:10:24;;;;;;;2.17;0.60;;;22.50;99.50;;;;;;4990336;28;20191;-34
2022/05/24 12:12:55;;;;;;;1.30;0.60;;;22.20;98.40;;;;;;4974374;28;20263;-34
2022/05/24 12:15:24;;;;;;;0.80;0.70;;;22.40;97.90;;;;;;5004124;28;20298;-34
2022/05/24 12:18:18;;;;;;;2.92;0.60;;;22.60;98.00;;;;;;4993859;28;20199;-34
2022/05/24 12:20:44;;;;;;;1.08;0.77;;;22.90;98.80;;;;;;4989146;28;20849;-35
2022/05/24 12:23:41;;;;;;;1.58;0.70;;;23.20;99.00;;;;;;4994616;28;20186;-34
2022/05/24 12:26:13;;;;;;;1.38;0.60;;;23.20;98.10;;;;;;4982574;28;20183;-34
2022/05/24 12:28:41;;;;;;;1.60;0.60;;;23.20;97.80;;;;;;4993343;28;20241;-36
2022/05/24 12:31:13;;;;;;;3.53;0.90;;;23.10;97.20;;;;;;4977130;28;20179;-34
2022/05/24 12:33:58;;;;;;;0.60;0.50;;;23.50;96.70;;;;;;5009818;28;20175;-34
2022/05/24 12:36:28;;;;;;;1.95;0.65;;;23.90;97.30;;;;;;4993629;28;20225;-34
2022/05/24 12:39:16;;;;;;;2.05;0.60;;;24.10;95.10;;;;;;4993532;28;20187;-36
2022/05/24 12:41:46;;;;;;;1.08;0.60;;;23.40;95.20;;;;;;4997348;28;20209;-36
2022/05/24 12:44:14;;;;;;;2.00;0.50;;;23.30;96.00;;;;;;5013833;28;20191;-37
2022/05/24 12:46:42;;;;;;;0.77;0.60;;;23.20;96.00;;;;;;4975179;28;20200;-34
2022/05/24 12:49:21;;;;;;;0.57;0.50;;;23.20;96.70;;;;;;4969565;28;20513;-36
2022/05/24 12:51:47;;;;;;;0.60;0.60;;;23.10;96.00;;;;;;5050974;22;20227;-32
2022/05/24 12:54:16;;;;;;;2.42;0.70;;;23.10;97.00;;;;;;4968665;28;20175;-32
2022/05/24 12:56:59;;;;;;;0.82;0.60;;;23.50;97.60;;;;;;4985988;28;20168;-32
2022/05/24 12:59:40;;;;;;;3.28;0.95;;;23.70;96.10;;;;;;4988003;28;20180;-33
2022/05/24 13:02:33;;;;;;;0.85;0.60;;;24.00;96.50;;;;;;4955069;28;20210;-32
2022/05/24 13:05:08;;;;;;;1.23;0.55;;;24.30;95.90;;;;;;4968009;28;20188;-32
2022/05/24 13:07:57;;;;;;;1.67;0.73;;;24.10;95.20;;;;;;4999625;28;20186;-32
2022/05/24 13:10:27;;;;;;;1.67;0.65;;;23.60;95.40;;;;;;4984310;28;20207;-32
2022/05/24 13:13:09;;;;;;;0.60;0.60;;;23.20;95.20;;;;;;4966460;28;20185;-32
2022/05/24 13:15:42;;;;;;;1.27;0.70;;;23.10;95.10;;;;;;4965295;28;20215;-32
2022/05/24 13:18:16;;;;;;;1.85;0.57;;;22.70;93.60;;;;;;4952433;28;20267;-32
2022/05/24 13:20:55;;;;;;;0.75;0.75;;;22.60;95.60;;;;;;5009823;28;20211;-32
2022/05/24 13:23:32;;;;;;;0.60;0.50;;;22.40;95.60;;;;;;5010119;28;20183;-32
2022/05/24 13:26:01;;;;;;;0.90;0.70;;;22.30;96.20;;;;;;4993407;28;20183;-32
2022/05/24 13:28:46;;;;;;;1.30;0.63;;;22.40;95.20;;;;;;4996200;28;20309;-32
2022/05/24 13:34:18;;;;;;;0.50;0.50;;;22.40;95.60;;;;;;4990055;28;20252;-32
2022/05/24 13:37:03;;;;;;;1.42;0.40;;;22.60;95.40;;;;;;4949712;28;20235;-32
2022/05/24 13:39:38;;;;;;;0.68;0.68;;;23.00;95.50;;;;;;4973055;28;20191;-33
2022/05/24 13:42:07;;;;;;;0.73;0.70;;;23.20;94.10;;;;;;5009439;28;20207;-32
2022/05/24 13:44:36;;;;;;;1.70;0.57;;;23.20;94.00;;;;;;5005957;28;20286;-33
2022/05/24 13:47:28;;;;;;;1.83;0.60;;;23.30;94.10;;;;;;4994036;28;20214;-32
2022/05/24 13:49:55;;;;;;;0.60;0.52;;;23.20;94.40;;;;;;4951696;28;20223;-32
2022/05/24 13:52:29;;;;;;;0.90;0.70;;;23.30;93.70;;;;;;4991242;28;20468;-32
2022/05/24 13:55:13;;;;;;;1.20;0.50;;;23.40;93.70;;;;;;4976427;28;20309;-32